sensor_id;sensor_type;location;lat;lon;timestamp;P1;durP1;ratioP1;P2;durP2;ratioP2
78402;SDS011;67687;43.508;1.504;2024-01-15T00:00:58;37.40;;;14.40;;
78402;SDS011;67687;43.508;1.504;2024-01-15T00:03:25;29.02;;;12.93;;
78402;SDS011;67687;43.508;1.504;2024-01-15T00:05:53;20.45;;;9.32;;
78402;SDS011;67687;43.508;1.504;2024-01-15T00:08:20;15.43;;;8.80;;
78402;SDS011;67687;43.508;1.504;2024-01-15T00:10:46;14.07;;;6.25;;
78402;SDS011;67687;43.508;1.504;2024-01-15T00:13:13;13.10;;;7.23;;
78402;SDS011;67687;43.508;1.504;2024-01-15T00:15:40;15.75;;;6.43;;
78402;SDS011;67687;43.508;1.504;2024-01-15T00:18:06;12.63;;;5.50;;
78402;SDS011;67687;43.508;1.504;2024-01-15T00:20:33;13.88;;;5.70;;
78402;SDS011;67687;43.508;1.504;2024-01-15T00:23:01;12.88;;;5.88;;
78402;SDS011;67687;43.508;1.504;2024-01-15T00:25:28;12.37;;;5.17;;
78402;SDS011;67687;43.508;1.504;2024-01-15T00:27:54;9.93;;;5.47;;
78402;SDS011;67687;43.508;1.504;2024-01-15T00:30:21;11.18;;;5.15;;
78402;SDS011;67687;43.508;1.504;2024-01-15T00:32:48;10.43;;;5.85;;
78402;SDS011;67687;43.508;1.504;2024-01-15T00:35:15;11.43;;;5.70;;
78402;SDS011;67687;43.508;1.504;2024-01-15T00:37:41;12.43;;;5.53;;
78402;SDS011;67687;43.508;1.504;2024-01-15T00:40:09;12.65;;;5.65;;
78402;SDS011;67687;43.508;1.504;2024-01-15T00:42:36;12.20;;;6.28;;
78402;SDS011;67687;43.508;1.504;2024-01-15T00:45:03;13.68;;;6.25;;
78402;SDS011;67687;43.508;1.504;2024-01-15T00:47:33;14.55;;;5.95;;
78402;SDS011;67687;43.508;1.504;2024-01-15T00:49:59;13.20;;;5.57;;
78402;SDS011;67687;43.508;1.504;2024-01-15T00:52:26;12.70;;;5.63;;
78402;SDS011;67687;43.508;1.504;2024-01-15T00:54:53;13.75;;;5.25;;
78402;SDS011;67687;43.508;1.504;2024-01-15T00:57:21;10.13;;;5.32;;
78402;SDS011;67687;43.508;1.504;2024-01-15T00:59:47;13.15;;;5.30;;
78402;SDS011;67687;43.508;1.504;2024-01-15T01:02:14;14.27;;;5.93;;
78402;SDS011;67687;43.508;1.504;2024-01-15T01:04:41;11.45;;;5.30;;
78402;SDS011;67687;43.508;1.504;2024-01-15T01:07:07;12.73;;;5.63;;
78402;SDS011;67687;43.508;1.504;2024-01-15T01:09:34;11.02;;;5.20;;
78402;SDS011;67687;43.508;1.504;2024-01-15T01:12:01;11.70;;;5.97;;
78402;SDS011;67687;43.508;1.504;2024-01-15T01:14:29;13.07;;;6.17;;
78402;SDS011;67687;43.508;1.504;2024-01-15T01:16:56;12.38;;;6.07;;
78402;SDS011;67687;43.508;1.504;2024-01-15T01:19:22;13.00;;;5.80;;
78402;SDS011;67687;43.508;1.504;2024-01-15T01:21:50;19.33;;;6.57;;
78402;SDS011;67687;43.508;1.504;2024-01-15T01:24:17;12.68;;;6.35;;
78402;SDS011;67687;43.508;1.504;2024-01-15T01:26:44;11.83;;;6.10;;
78402;SDS011;67687;43.508;1.504;2024-01-15T01:29:11;13.02;;;6.25;;
78402;SDS011;67687;43.508;1.504;2024-01-15T01:31:43;16.15;;;6.68;;
78402;SDS011;67687;43.508;1.504;2024-01-15T01:34:10;10.88;;;5.78;;
78402;SDS011;67687;43.508;1.504;2024-01-15T01:36:37;16.13;;;6.65;;
78402;SDS011;67687;43.508;1.504;2024-01-15T01:39:04;16.33;;;7.10;;
78402;SDS011;67687;43.508;1.504;2024-01-15T01:41:30;14.27;;;6.88;;
78402;SDS011;67687;43.508;1.504;2024-01-15T01:43:57;16.08;;;6.35;;
78402;SDS011;67687;43.508;1.504;2024-01-15T01:46:24;14.57;;;6.53;;
78402;SDS011;67687;43.508;1.504;2024-01-15T01:48:53;15.75;;;7.18;;
78402;SDS011;67687;43.508;1.504;2024-01-15T01:51:21;16.63;;;7.27;;
78402;SDS011;67687;43.508;1.504;2024-01-15T01:53:49;16.23;;;7.05;;
78402;SDS011;67687;43.508;1.504;2024-01-15T01:56:16;13.30;;;7.00;;
78402;SDS011;67687;43.508;1.504;2024-01-15T01:58:44;14.77;;;6.57;;
78402;SDS011;67687;43.508;1.504;2024-01-15T02:01:11;12.77;;;6.00;;
78402;SDS011;67687;43.508;1.504;2024-01-15T02:03:39;13.70;;;6.30;;
78402;SDS011;67687;43.508;1.504;2024-01-15T02:06:07;10.88;;;5.75;;
78402;SDS011;67687;43.508;1.504;2024-01-15T02:08:34;15.50;;;6.07;;
78402;SDS011;67687;43.508;1.504;2024-01-15T02:11:01;14.52;;;6.05;;
78402;SDS011;67687;43.508;1.504;2024-01-15T02:13:28;11.90;;;6.47;;
78402;SDS011;67687;43.508;1.504;2024-01-15T02:15:55;14.07;;;6.23;;
78402;SDS011;67687;43.508;1.504;2024-01-15T02:18:21;13.70;;;6.53;;
78402;SDS011;67687;43.508;1.504;2024-01-15T02:20:48;11.55;;;5.85;;
78402;SDS011;67687;43.508;1.504;2024-01-15T02:23:16;11.77;;;6.20;;
78402;SDS011;67687;43.508;1.504;2024-01-15T02:25:43;12.98;;;6.72;;
78402;SDS011;67687;43.508;1.504;2024-01-15T02:28:13;14.23;;;7.00;;
78402;SDS011;67687;43.508;1.504;2024-01-15T02:30:41;17.15;;;7.00;;
78402;SDS011;67687;43.508;1.504;2024-01-15T02:33:09;13.85;;;6.55;;
78402;SDS011;67687;43.508;1.504;2024-01-15T02:35:36;12.85;;;6.68;;
78402;SDS011;67687;43.508;1.504;2024-01-15T02:38:03;12.82;;;7.32;;
78402;SDS011;67687;43.508;1.504;2024-01-15T02:40:31;15.87;;;7.37;;
78402;SDS011;67687;43.508;1.504;2024-01-15T02:42:58;15.40;;;7.13;;
78402;SDS011;67687;43.508;1.504;2024-01-15T02:45:25;15.05;;;7.20;;
78402;SDS011;67687;43.508;1.504;2024-01-15T02:47:52;13.95;;;7.35;;
78402;SDS011;67687;43.508;1.504;2024-01-15T02:50:18;18.52;;;7.93;;
78402;SDS011;67687;43.508;1.504;2024-01-15T02:52:45;17.83;;;8.90;;
78402;SDS011;67687;43.508;1.504;2024-01-15T02:55:12;18.23;;;8.20;;
78402;SDS011;67687;43.508;1.504;2024-01-15T02:57:40;20.35;;;9.40;;
78402;SDS011;67687;43.508;1.504;2024-01-15T03:00:07;19.92;;;9.20;;
78402;SDS011;67687;43.508;1.504;2024-01-15T03:02:35;19.73;;;8.95;;
78402;SDS011;67687;43.508;1.504;2024-01-15T03:05:04;19.63;;;8.83;;
78402;SDS011;67687;43.508;1.504;2024-01-15T03:07:31;20.80;;;8.60;;
78402;SDS011;67687;43.508;1.504;2024-01-15T03:09:58;19.45;;;8.50;;
78402;SDS011;67687;43.508;1.504;2024-01-15T03:12:24;19.88;;;9.30;;
78402;SDS011;67687;43.508;1.504;2024-01-15T03:14:53;21.63;;;8.25;;
78402;SDS011;67687;43.508;1.504;2024-01-15T03:17:19;17.63;;;8.80;;
78402;SDS011;67687;43.508;1.504;2024-01-15T03:19:46;19.38;;;8.80;;
78402;SDS011;67687;43.508;1.504;2024-01-15T03:22:14;18.65;;;8.98;;
78402;SDS011;67687;43.508;1.504;2024-01-15T03:24:41;22.55;;;9.00;;
78402;SDS011;67687;43.508;1.504;2024-01-15T03:27:08;19.63;;;9.00;;
78402;SDS011;67687;43.508;1.504;2024-01-15T03:29:34;22.27;;;8.87;;
78402;SDS011;67687;43.508;1.504;2024-01-15T03:32:03;16.23;;;7.88;;
78402;SDS011;67687;43.508;1.504;2024-01-15T03:34:30;17.48;;;7.88;;
78402;SDS011;67687;43.508;1.504;2024-01-15T03:36:56;17.25;;;7.70;;
78402;SDS011;67687;43.508;1.504;2024-01-15T03:39:24;17.23;;;7.15;;
78402;SDS011;67687;43.508;1.504;2024-01-15T03:41:51;21.33;;;9.40;;
78402;SDS011;67687;43.508;1.504;2024-01-15T03:44:17;16.67;;;8.30;;
78402;SDS011;67687;43.508;1.504;2024-01-15T03:46:44;18.35;;;7.93;;
78402;SDS011;67687;43.508;1.504;2024-01-15T03:49:12;17.60;;;8.35;;
78402;SDS011;67687;43.508;1.504;2024-01-15T03:51:39;19.58;;;8.77;;
78402;SDS011;67687;43.508;1.504;2024-01-15T03:54:05;19.77;;;9.17;;
78402;SDS011;67687;43.508;1.504;2024-01-15T03:56:32;17.90;;;8.35;;
78402;SDS011;67687;43.508;1.504;2024-01-15T03:59:00;19.73;;;9.00;;
78402;SDS011;67687;43.508;1.504;2024-01-15T04:01:27;18.17;;;9.23;;
78402;SDS011;67687;43.508;1.504;2024-01-15T04:03:54;16.98;;;7.63;;
78402;SDS011;67687;43.508;1.504;2024-01-15T04:06:22;17.33;;;8.33;;
78402;SDS011;67687;43.508;1.504;2024-01-15T04:08:49;15.88;;;8.07;;
78402;SDS011;67687;43.508;1.504;2024-01-15T04:11:16;17.35;;;7.93;;
78402;SDS011;67687;43.508;1.504;2024-01-15T04:13:42;16.98;;;8.23;;
78402;SDS011;67687;43.508;1.504;2024-01-15T04:16:09;20.30;;;9.27;;
78402;SDS011;67687;43.508;1.504;2024-01-15T04:18:36;17.13;;;8.63;;
78402;SDS011;67687;43.508;1.504;2024-01-15T04:21:03;16.55;;;9.02;;
78402;SDS011;67687;43.508;1.504;2024-01-15T04:23:32;17.38;;;8.70;;
78402;SDS011;67687;43.508;1.504;2024-01-15T04:25:58;16.65;;;8.60;;
78402;SDS011;67687;43.508;1.504;2024-01-15T04:28:25;19.20;;;8.82;;
78402;SDS011;67687;43.508;1.504;2024-01-15T04:30:52;17.70;;;9.83;;
78402;SDS011;67687;43.508;1.504;2024-01-15T04:33:19;19.55;;;9.40;;
78402;SDS011;67687;43.508;1.504;2024-01-15T04:35:45;18.90;;;9.23;;
78402;SDS011;67687;43.508;1.504;2024-01-15T04:38:12;20.88;;;8.25;;
78402;SDS011;67687;43.508;1.504;2024-01-15T04:40:40;20.83;;;9.07;;
78402;SDS011;67687;43.508;1.504;2024-01-15T04:43:07;20.03;;;9.17;;
78402;SDS011;67687;43.508;1.504;2024-01-15T04:45:33;22.77;;;9.75;;
78402;SDS011;67687;43.508;1.504;2024-01-15T04:48:00;21.48;;;9.65;;
78402;SDS011;67687;43.508;1.504;2024-01-15T04:50:27;19.67;;;9.55;;
78402;SDS011;67687;43.508;1.504;2024-01-15T04:52:53;26.58;;;10.43;;
78402;SDS011;67687;43.508;1.504;2024-01-15T04:55:20;21.33;;;9.83;;
78402;SDS011;67687;43.508;1.504;2024-01-15T04:57:48;22.30;;;10.15;;
78402;SDS011;67687;43.508;1.504;2024-01-15T05:00:15;21.27;;;9.77;;
78402;SDS011;67687;43.508;1.504;2024-01-15T05:02:42;25.17;;;10.60;;
78402;SDS011;67687;43.508;1.504;2024-01-15T05:05:08;26.77;;;10.43;;
78402;SDS011;67687;43.508;1.504;2024-01-15T05:07:35;25.33;;;10.73;;
78402;SDS011;67687;43.508;1.504;2024-01-15T05:10:02;25.35;;;10.50;;
78402;SDS011;67687;43.508;1.504;2024-01-15T05:12:29;25.88;;;10.10;;
78402;SDS011;67687;43.508;1.504;2024-01-15T05:14:57;22.73;;;9.82;;
78402;SDS011;67687;43.508;1.504;2024-01-15T05:17:24;23.17;;;9.82;;
78402;SDS011;67687;43.508;1.504;2024-01-15T05:19:51;29.07;;;10.90;;
78402;SDS011;67687;43.508;1.504;2024-01-15T05:22:17;29.83;;;11.63;;
78402;SDS011;67687;43.508;1.504;2024-01-15T05:24:44;27.75;;;11.15;;
78402;SDS011;67687;43.508;1.504;2024-01-15T05:27:11;32.33;;;11.88;;
78402;SDS011;67687;43.508;1.504;2024-01-15T05:29:37;29.38;;;11.73;;
78402;SDS011;67687;43.508;1.504;2024-01-15T05:32:06;29.97;;;10.97;;
78402;SDS011;67687;43.508;1.504;2024-01-15T05:34:32;30.80;;;11.98;;
78402;SDS011;67687;43.508;1.504;2024-01-15T05:36:59;27.35;;;10.65;;
78402;SDS011;67687;43.508;1.504;2024-01-15T05:39:26;26.45;;;11.18;;
78402;SDS011;67687;43.508;1.504;2024-01-15T05:41:53;29.60;;;10.88;;
78402;SDS011;67687;43.508;1.504;2024-01-15T05:44:19;29.20;;;10.90;;
78402;SDS011;67687;43.508;1.504;2024-01-15T05:46:46;24.83;;;10.77;;
78402;SDS011;67687;43.508;1.504;2024-01-15T05:49:14;31.95;;;10.63;;
78402;SDS011;67687;43.508;1.504;2024-01-15T05:51:41;28.35;;;11.20;;
78402;SDS011;67687;43.508;1.504;2024-01-15T05:54:07;30.38;;;11.07;;
78402;SDS011;67687;43.508;1.504;2024-01-15T05:56:34;31.63;;;11.13;;
78402;SDS011;67687;43.508;1.504;2024-01-15T05:59:01;31.20;;;11.63;;
78402;SDS011;67687;43.508;1.504;2024-01-15T06:01:27;25.50;;;9.93;;
78402;SDS011;67687;43.508;1.504;2024-01-15T06:03:54;23.67;;;10.40;;
78402;SDS011;67687;43.508;1.504;2024-01-15T06:06:22;26.83;;;11.00;;
78402;SDS011;67687;43.508;1.504;2024-01-15T06:08:49;25.00;;;10.17;;
78402;SDS011;67687;43.508;1.504;2024-01-15T06:11:16;25.92;;;12.40;;
78402;SDS011;67687;43.508;1.504;2024-01-15T06:13:42;24.77;;;10.43;;
78402;SDS011;67687;43.508;1.504;2024-01-15T06:16:13;26.15;;;11.20;;
78402;SDS011;67687;43.508;1.504;2024-01-15T06:18:40;25.65;;;10.25;;
78402;SDS011;67687;43.508;1.504;2024-01-15T06:21:07;23.17;;;10.70;;
78402;SDS011;67687;43.508;1.504;2024-01-15T06:23:37;25.70;;;11.18;;
78402;SDS011;67687;43.508;1.504;2024-01-15T06:26:04;30.83;;;13.55;;
78402;SDS011;67687;43.508;1.504;2024-01-15T06:28:31;27.60;;;12.68;;
78402;SDS011;67687;43.508;1.504;2024-01-15T06:30:58;33.33;;;14.00;;
78402;SDS011;67687;43.508;1.504;2024-01-15T06:33:24;31.30;;;13.77;;
78402;SDS011;67687;43.508;1.504;2024-01-15T06:35:51;37.05;;;14.80;;
78402;SDS011;67687;43.508;1.504;2024-01-15T06:38:18;37.55;;;15.30;;
78402;SDS011;67687;43.508;1.504;2024-01-15T06:40:46;32.20;;;14.05;;
78402;SDS011;67687;43.508;1.504;2024-01-15T06:43:13;36.53;;;15.82;;
78402;SDS011;67687;43.508;1.504;2024-01-15T06:45:40;38.73;;;15.97;;
78402;SDS011;67687;43.508;1.504;2024-01-15T06:48:07;42.90;;;16.92;;
78402;SDS011;67687;43.508;1.504;2024-01-15T06:50:33;40.80;;;17.42;;
78402;SDS011;67687;43.508;1.504;2024-01-15T06:53:00;38.67;;;15.52;;
78402;SDS011;67687;43.508;1.504;2024-01-15T06:55:27;38.20;;;15.40;;
78402;SDS011;67687;43.508;1.504;2024-01-15T06:57:55;56.87;;;17.20;;
78402;SDS011;67687;43.508;1.504;2024-01-15T07:00:22;46.53;;;16.13;;
78402;SDS011;67687;43.508;1.504;2024-01-15T07:02:48;57.58;;;17.55;;
78402;SDS011;67687;43.508;1.504;2024-01-15T07:05:15;48.50;;;15.77;;
78402;SDS011;67687;43.508;1.504;2024-01-15T07:07:42;50.47;;;15.55;;
78402;SDS011;67687;43.508;1.504;2024-01-15T07:10:09;66.80;;;16.50;;
78402;SDS011;67687;43.508;1.504;2024-01-15T07:12:35;79.32;;;18.35;;
78402;SDS011;67687;43.508;1.504;2024-01-15T07:15:04;61.45;;;17.38;;
78402;SDS011;67687;43.508;1.504;2024-01-15T07:17:33;63.85;;;16.10;;
78402;SDS011;67687;43.508;1.504;2024-01-15T07:19:59;76.55;;;15.68;;
78402;SDS011;67687;43.508;1.504;2024-01-15T07:22:26;52.40;;;14.20;;
78402;SDS011;67687;43.508;1.504;2024-01-15T07:24:53;57.22;;;14.20;;
78402;SDS011;67687;43.508;1.504;2024-01-15T07:27:19;49.03;;;13.95;;
78402;SDS011;67687;43.508;1.504;2024-01-15T07:29:46;46.60;;;12.50;;
78402;SDS011;67687;43.508;1.504;2024-01-15T07:32:15;44.15;;;12.32;;
78402;SDS011;67687;43.508;1.504;2024-01-15T07:34:42;44.23;;;12.87;;
78402;SDS011;67687;43.508;1.504;2024-01-15T07:37:08;53.40;;;13.30;;
78402;SDS011;67687;43.508;1.504;2024-01-15T07:39:35;41.92;;;12.30;;
78402;SDS011;67687;43.508;1.504;2024-01-15T07:42:02;52.88;;;13.93;;
78402;SDS011;67687;43.508;1.504;2024-01-15T07:44:29;48.45;;;13.88;;
78402;SDS011;67687;43.508;1.504;2024-01-15T07:46:55;51.63;;;13.83;;
78402;SDS011;67687;43.508;1.504;2024-01-15T07:49:24;48.30;;;13.55;;
78402;SDS011;67687;43.508;1.504;2024-01-15T07:51:51;58.17;;;13.65;;
78402;SDS011;67687;43.508;1.504;2024-01-15T07:54:17;43.33;;;13.25;;
78402;SDS011;67687;43.508;1.504;2024-01-15T07:56:53;48.63;;;13.40;;
78402;SDS011;67687;43.508;1.504;2024-01-15T07:59:21;49.47;;;13.50;;
78402;SDS011;67687;43.508;1.504;2024-01-15T08:01:47;52.58;;;14.40;;
78402;SDS011;67687;43.508;1.504;2024-01-15T08:04:14;47.80;;;13.80;;
78402;SDS011;67687;43.508;1.504;2024-01-15T08:06:42;48.00;;;13.52;;
78402;SDS011;67687;43.508;1.504;2024-01-15T08:09:10;50.67;;;13.43;;
78402;SDS011;67687;43.508;1.504;2024-01-15T08:11:39;46.30;;;12.93;;
78402;SDS011;67687;43.508;1.504;2024-01-15T08:14:06;40.92;;;12.98;;
78402;SDS011;67687;43.508;1.504;2024-01-15T08:16:33;41.60;;;12.25;;
78402;SDS011;67687;43.508;1.504;2024-01-15T08:19:00;45.83;;;12.82;;
78402;SDS011;67687;43.508;1.504;2024-01-15T08:21:26;44.25;;;12.85;;
78402;SDS011;67687;43.508;1.504;2024-01-15T08:23:56;44.57;;;13.03;;
78402;SDS011;67687;43.508;1.504;2024-01-15T08:26:23;43.80;;;13.93;;
78402;SDS011;67687;43.508;1.504;2024-01-15T08:28:50;51.15;;;14.98;;
78402;SDS011;67687;43.508;1.504;2024-01-15T08:31:17;49.83;;;15.73;;
78402;SDS011;67687;43.508;1.504;2024-01-15T08:33:44;50.15;;;16.15;;
78402;SDS011;67687;43.508;1.504;2024-01-15T08:36:11;52.57;;;15.80;;
78402;SDS011;67687;43.508;1.504;2024-01-15T08:38:37;64.32;;;19.88;;
78402;SDS011;67687;43.508;1.504;2024-01-15T08:41:05;56.55;;;19.42;;
78402;SDS011;67687;43.508;1.504;2024-01-15T08:43:33;53.35;;;18.55;;
78402;SDS011;67687;43.508;1.504;2024-01-15T08:46:00;59.25;;;18.95;;
78402;SDS011;67687;43.508;1.504;2024-01-15T08:48:27;54.47;;;19.43;;
78402;SDS011;67687;43.508;1.504;2024-01-15T08:50:53;56.33;;;18.40;;
78402;SDS011;67687;43.508;1.504;2024-01-15T08:53:21;51.80;;;18.40;;
78402;SDS011;67687;43.508;1.504;2024-01-15T08:55:48;56.05;;;18.50;;
78402;SDS011;67687;43.508;1.504;2024-01-15T08:58:16;68.30;;;20.10;;
78402;SDS011;67687;43.508;1.504;2024-01-15T09:00:43;61.03;;;20.43;;
78402;SDS011;67687;43.508;1.504;2024-01-15T09:03:09;61.33;;;21.70;;
78402;SDS011;67687;43.508;1.504;2024-01-15T09:05:37;78.15;;;23.08;;
78402;SDS011;67687;43.508;1.504;2024-01-15T09:08:03;72.15;;;21.58;;
78402;SDS011;67687;43.508;1.504;2024-01-15T09:10:30;60.85;;;20.80;;
78402;SDS011;67687;43.508;1.504;2024-01-15T09:12:57;59.10;;;18.77;;
78402;SDS011;67687;43.508;1.504;2024-01-15T09:15:26;52.45;;;15.52;;
78402;SDS011;67687;43.508;1.504;2024-01-15T09:17:53;52.58;;;14.48;;
78402;SDS011;67687;43.508;1.504;2024-01-15T09:20:22;60.35;;;16.20;;
78402;SDS011;67687;43.508;1.504;2024-01-15T09:22:49;49.03;;;14.32;;
78402;SDS011;67687;43.508;1.504;2024-01-15T09:25:16;60.00;;;16.53;;
78402;SDS011;67687;43.508;1.504;2024-01-15T09:27:42;60.60;;;16.10;;
78402;SDS011;67687;43.508;1.504;2024-01-15T09:30:09;60.40;;;16.30;;
78402;SDS011;67687;43.508;1.504;2024-01-15T09:32:38;98.13;;;20.02;;
78402;SDS011;67687;43.508;1.504;2024-01-15T09:35:05;79.25;;;19.38;;
78402;SDS011;67687;43.508;1.504;2024-01-15T09:37:33;72.47;;;17.37;;
78402;SDS011;67687;43.508;1.504;2024-01-15T09:40:00;64.35;;;16.55;;
78402;SDS011;67687;43.508;1.504;2024-01-15T09:42:27;68.18;;;17.45;;
78402;SDS011;67687;43.508;1.504;2024-01-15T09:44:54;67.05;;;18.30;;
78402;SDS011;67687;43.508;1.504;2024-01-15T09:47:21;62.85;;;17.10;;
78402;SDS011;67687;43.508;1.504;2024-01-15T09:49:51;56.00;;;16.20;;
78402;SDS011;67687;43.508;1.504;2024-01-15T09:52:18;67.72;;;16.63;;
78402;SDS011;67687;43.508;1.504;2024-01-15T09:54:45;59.78;;;15.20;;
78402;SDS011;67687;43.508;1.504;2024-01-15T09:57:12;49.78;;;14.73;;
78402;SDS011;67687;43.508;1.504;2024-01-15T09:59:39;51.30;;;13.98;;
78402;SDS011;67687;43.508;1.504;2024-01-15T10:02:07;42.33;;;13.50;;
78402;SDS011;67687;43.508;1.504;2024-01-15T10:04:34;49.90;;;13.13;;
78402;SDS011;67687;43.508;1.504;2024-01-15T10:07:03;46.25;;;13.15;;
78402;SDS011;67687;43.508;1.504;2024-01-15T10:09:31;45.97;;;12.98;;
78402;SDS011;67687;43.508;1.504;2024-01-15T10:11:58;42.63;;;12.38;;
78402;SDS011;67687;43.508;1.504;2024-01-15T10:14:24;45.63;;;12.17;;
78402;SDS011;67687;43.508;1.504;2024-01-15T10:16:51;45.53;;;13.10;;
78402;SDS011;67687;43.508;1.504;2024-01-15T10:19:18;46.28;;;13.60;;
78402;SDS011;67687;43.508;1.504;2024-01-15T10:21:45;52.95;;;14.77;;
78402;SDS011;67687;43.508;1.504;2024-01-15T10:24:13;58.47;;;15.20;;
78402;SDS011;67687;43.508;1.504;2024-01-15T10:26:40;46.30;;;13.90;;
78402;SDS011;67687;43.508;1.504;2024-01-15T10:29:06;47.65;;;15.15;;
78402;SDS011;67687;43.508;1.504;2024-01-15T10:31:33;55.35;;;15.23;;
78402;SDS011;67687;43.508;1.504;2024-01-15T10:34:09;53.28;;;15.98;;
78402;SDS011;67687;43.508;1.504;2024-01-15T10:36:39;41.78;;;13.10;;
78402;SDS011;67687;43.508;1.504;2024-01-15T10:39:06;44.80;;;14.77;;
78402;SDS011;67687;43.508;1.504;2024-01-15T10:41:34;40.45;;;14.38;;
78402;SDS011;67687;43.508;1.504;2024-01-15T10:44:01;43.97;;;15.65;;
78402;SDS011;67687;43.508;1.504;2024-01-15T10:46:28;45.40;;;15.45;;
78402;SDS011;67687;43.508;1.504;2024-01-15T10:48:55;42.63;;;14.48;;
78402;SDS011;67687;43.508;1.504;2024-01-15T10:51:22;45.47;;;15.63;;
78402;SDS011;67687;43.508;1.504;2024-01-15T10:53:51;49.45;;;15.90;;
78402;SDS011;67687;43.508;1.504;2024-01-15T10:56:19;51.05;;;16.33;;
78402;SDS011;67687;43.508;1.504;2024-01-15T10:58:49;48.95;;;16.10;;
78402;SDS011;67687;43.508;1.504;2024-01-15T11:01:16;50.53;;;16.95;;
78402;SDS011;67687;43.508;1.504;2024-01-15T11:03:44;43.37;;;16.23;;
78402;SDS011;67687;43.508;1.504;2024-01-15T11:06:16;49.47;;;16.00;;
78402;SDS011;67687;43.508;1.504;2024-01-15T11:08:42;44.58;;;15.18;;
78402;SDS011;67687;43.508;1.504;2024-01-15T11:11:10;45.35;;;15.73;;
78402;SDS011;67687;43.508;1.504;2024-01-15T11:13:40;47.72;;;16.25;;
78402;SDS011;67687;43.508;1.504;2024-01-15T11:16:09;40.40;;;15.30;;
78402;SDS011;67687;43.508;1.504;2024-01-15T11:18:37;52.08;;;17.02;;
78402;SDS011;67687;43.508;1.504;2024-01-15T11:21:21;43.42;;;15.07;;
78402;SDS011;67687;43.508;1.504;2024-01-15T11:23:53;46.58;;;16.73;;
78402;SDS011;67687;43.508;1.504;2024-01-15T11:26:32;43.65;;;16.23;;
78402;SDS011;67687;43.508;1.504;2024-01-15T11:29:01;48.90;;;16.23;;
78402;SDS011;67687;43.508;1.504;2024-01-15T11:34:49;40.42;;;15.82;;
78402;SDS011;67687;43.508;1.504;2024-01-15T11:37:16;39.63;;;15.43;;
78402;SDS011;67687;43.508;1.504;2024-01-15T11:39:43;40.50;;;16.48;;
78402;SDS011;67687;43.508;1.504;2024-01-15T11:42:12;36.63;;;17.23;;
78402;SDS011;67687;43.508;1.504;2024-01-15T11:44:39;39.15;;;16.95;;
78402;SDS011;67687;43.508;1.504;2024-01-15T11:47:08;39.53;;;17.13;;
78402;SDS011;67687;43.508;1.504;2024-01-15T11:52:24;36.42;;;15.45;;
78402;SDS011;67687;43.508;1.504;2024-01-15T11:54:53;37.03;;;15.83;;
78402;SDS011;67687;43.508;1.504;2024-01-15T11:57:25;38.78;;;16.73;;
78402;SDS011;67687;43.508;1.504;2024-01-15T11:59:59;41.00;;;17.08;;
78402;SDS011;67687;43.508;1.504;2024-01-15T12:02:27;40.13;;;18.17;;
78402;SDS011;67687;43.508;1.504;2024-01-15T12:04:55;41.25;;;18.02;;
78402;SDS011;67687;43.508;1.504;2024-01-15T12:07:21;41.00;;;18.57;;
78402;SDS011;67687;43.508;1.504;2024-01-15T12:09:48;42.30;;;18.33;;
78402;SDS011;67687;43.508;1.504;2024-01-15T12:12:17;42.90;;;18.20;;
78402;SDS011;67687;43.508;1.504;2024-01-15T12:14:49;39.42;;;17.65;;
78402;SDS011;67687;43.508;1.504;2024-01-15T12:17:16;43.13;;;18.65;;
78402;SDS011;67687;43.508;1.504;2024-01-15T12:19:44;43.20;;;18.60;;
78402;SDS011;67687;43.508;1.504;2024-01-15T12:22:11;38.63;;;18.85;;
78402;SDS011;67687;43.508;1.504;2024-01-15T12:24:37;45.47;;;18.95;;
78402;SDS011;67687;43.508;1.504;2024-01-15T12:27:04;44.13;;;19.35;;
78402;SDS011;67687;43.508;1.504;2024-01-15T12:29:31;44.58;;;20.60;;
78402;SDS011;67687;43.508;1.504;2024-01-15T12:31:57;40.47;;;19.43;;
78402;SDS011;67687;43.508;1.504;2024-01-15T12:34:24;40.03;;;18.17;;
78402;SDS011;67687;43.508;1.504;2024-01-15T12:36:58;41.10;;;19.17;;
78402;SDS011;67687;43.508;1.504;2024-01-15T12:39:24;43.50;;;19.88;;
78402;SDS011;67687;43.508;1.504;2024-01-15T12:41:51;40.20;;;18.98;;
78402;SDS011;67687;43.508;1.504;2024-01-15T12:44:18;39.27;;;17.67;;
78402;SDS011;67687;43.508;1.504;2024-01-15T12:46:45;39.42;;;18.73;;
78402;SDS011;67687;43.508;1.504;2024-01-15T12:49:12;39.80;;;18.08;;
78402;SDS011;67687;43.508;1.504;2024-01-15T12:51:39;38.03;;;18.25;;
78402;SDS011;67687;43.508;1.504;2024-01-15T12:54:07;36.45;;;17.25;;
78402;SDS011;67687;43.508;1.504;2024-01-15T12:56:34;35.07;;;17.93;;
78402;SDS011;67687;43.508;1.504;2024-01-15T12:59:00;39.67;;;18.25;;
78402;SDS011;67687;43.508;1.504;2024-01-15T13:01:27;34.67;;;17.73;;
78402;SDS011;67687;43.508;1.504;2024-01-15T13:03:54;35.75;;;17.83;;
78402;SDS011;67687;43.508;1.504;2024-01-15T13:06:21;33.95;;;17.75;;
78402;SDS011;67687;43.508;1.504;2024-01-15T13:08:47;36.63;;;17.17;;
78402;SDS011;67687;43.508;1.504;2024-01-15T13:11:15;32.20;;;16.38;;
78402;SDS011;67687;43.508;1.504;2024-01-15T13:13:43;34.45;;;17.25;;
78402;SDS011;67687;43.508;1.504;2024-01-15T13:16:09;37.47;;;18.35;;
78402;SDS011;67687;43.508;1.504;2024-01-15T13:18:36;39.88;;;19.17;;
78402;SDS011;67687;43.508;1.504;2024-01-15T13:21:03;37.43;;;19.23;;
78402;SDS011;67687;43.508;1.504;2024-01-15T13:23:30;48.20;;;22.60;;
78402;SDS011;67687;43.508;1.504;2024-01-15T13:25:56;40.22;;;19.50;;
78402;SDS011;67687;43.508;1.504;2024-01-15T13:28:25;41.97;;;21.48;;
78402;SDS011;67687;43.508;1.504;2024-01-15T13:30:52;35.92;;;18.50;;
78402;SDS011;67687;43.508;1.504;2024-01-15T13:33:19;32.97;;;16.93;;
78402;SDS011;67687;43.508;1.504;2024-01-15T13:35:45;24.52;;;13.63;;
78402;SDS011;67687;43.508;1.504;2024-01-15T13:38:15;13.57;;;8.77;;
78402;SDS011;67687;43.508;1.504;2024-01-15T13:40:41;14.13;;;8.25;;
78402;SDS011;67687;43.508;1.504;2024-01-15T13:43:10;13.35;;;8.18;;
78402;SDS011;67687;43.508;1.504;2024-01-15T13:45:38;16.07;;;8.50;;
78402;SDS011;67687;43.508;1.504;2024-01-15T13:48:05;13.80;;;7.88;;
78402;SDS011;67687;43.508;1.504;2024-01-15T13:50:33;13.88;;;8.30;;
78402;SDS011;67687;43.508;1.504;2024-01-15T13:53:00;16.00;;;8.45;;
78402;SDS011;67687;43.508;1.504;2024-01-15T13:55:26;12.00;;;7.30;;
78402;SDS011;67687;43.508;1.504;2024-01-15T13:57:54;13.57;;;7.90;;
78402;SDS011;67687;43.508;1.504;2024-01-15T14:00:20;14.32;;;7.70;;
78402;SDS011;67687;43.508;1.504;2024-01-15T14:02:49;14.35;;;7.78;;
78402;SDS011;67687;43.508;1.504;2024-01-15T14:05:16;12.50;;;6.60;;
78402;SDS011;67687;43.508;1.504;2024-01-15T14:07:43;46.78;;;17.33;;
78402;SDS011;67687;43.508;1.504;2024-01-15T14:10:09;28.77;;;12.23;;
78402;SDS011;67687;43.508;1.504;2024-01-15T14:12:36;14.48;;;7.43;;
78402;SDS011;67687;43.508;1.504;2024-01-15T14:15:03;18.35;;;8.85;;
78402;SDS011;67687;43.508;1.504;2024-01-15T14:17:31;13.18;;;6.72;;
78402;SDS011;67687;43.508;1.504;2024-01-15T14:19:59;11.13;;;6.57;;
78402;SDS011;67687;43.508;1.504;2024-01-15T14:22:26;12.47;;;7.47;;
78402;SDS011;67687;43.508;1.504;2024-01-15T14:24:52;11.77;;;6.88;;
78402;SDS011;67687;43.508;1.504;2024-01-15T14:27:19;12.85;;;7.60;;
78402;SDS011;67687;43.508;1.504;2024-01-15T14:29:46;11.95;;;7.25;;
78402;SDS011;67687;43.508;1.504;2024-01-15T14:32:13;14.30;;;8.00;;